RJAN(METAR)
10/20 16:00
RJAN 200700Z 35010G21KT CAVOK 20/11 Q1022 RMK A3019=
戻る
トップページへ戻る
IMOC Co,.Ltd.